Time;durP1;ratioP1;P1;durP2;ratioP2;P2;SDS_P1;SDS_P2;PMS_P1;PMS_P2;Temp;Humidity;BMP_temperature;BMP_pressure;BME280_temperature;BME280_humidity;BME280_pressure;Samples;Min_cycle;Max_cycle;Signal;HPM_P1;HPM_P2
2022/06/11 00:00:43;;;;;;;2.90;2.70;;;13.10;99.90;;;;;;5094324;28;20979;-70
2022/06/11 00:03:10;;;;;;;3.70;2.80;;;13.10;99.90;;;;;;5094137;28;20504;-70
2022/06/11 00:05:39;;;;;;;4.50;3.07;;;13.10;99.90;;;;;;5094050;28;20460;-69
2022/06/11 00:08:06;;;;;;;3.00;2.67;;;13.00;99.90;;;;;;5093397;28;20453;-70
2022/06/11 00:10:33;;;;;;;4.77;3.07;;;13.00;99.90;;;;;;5094072;28;20852;-69
2022/06/11 00:13:00;;;;;;;3.03;2.27;;;13.00;99.90;;;;;;5093726;28;20829;-69
2022/06/11 00:15:27;;;;;;;3.00;2.70;;;13.00;99.90;;;;;;5093777;28;20832;-69
2022/06/11 00:17:56;;;;;;;5.33;3.00;;;13.00;99.90;;;;;;5093658;28;20493;-69
2022/06/11 00:20:23;;;;;;;3.40;3.10;;;12.90;99.90;;;;;;5093640;28;20511;-69
2022/06/11 00:22:51;;;;;;;3.80;3.13;;;12.90;99.90;;;;;;5093282;28;21003;-69
2022/06/11 00:25:19;;;;;;;2.93;2.57;;;12.90;99.90;;;;;;5093927;28;20515;-69
2022/06/11 00:27:47;;;;;;;3.20;2.70;;;12.90;99.90;;;;;;5093192;28;20534;-70
2022/06/11 00:30:15;;;;;;;3.40;3.00;;;12.90;99.90;;;;;;5093270;28;20482;-69
2022/06/11 00:32:41;;;;;;;2.97;2.70;;;12.80;99.90;;;;;;5093313;28;20929;-69
2022/06/11 00:35:10;;;;;;;3.10;2.80;;;12.80;99.90;;;;;;5093667;28;20466;-70
2022/06/11 00:37:37;;;;;;;3.97;3.10;;;12.80;99.90;;;;;;5093456;28;20548;-69
2022/06/11 00:40:08;;;;;;;3.13;2.83;;;12.70;99.90;;;;;;5092781;28;20552;-69
2022/06/11 00:42:36;;;;;;;3.37;2.93;;;12.70;99.90;;;;;;5093504;28;20470;-69
2022/06/11 00:45:22;;;;;;;3.30;3.00;;;12.70;99.90;;;;;;5092806;28;20453;-70
2022/06/11 00:47:53;;;;;;;4.80;3.70;;;12.70;99.90;;;;;;5093143;28;20461;-69
2022/06/11 00:50:24;;;;;;;4.70;3.30;;;12.60;99.90;;;;;;5092730;28;20478;-69
2022/06/11 00:52:52;;;;;;;3.40;3.10;;;12.60;99.90;;;;;;5093088;28;20472;-70
2022/06/11 00:55:26;;;;;;;3.90;3.50;;;12.50;99.90;;;;;;5093168;28;20462;-69
2022/06/11 00:57:56;;;;;;;3.50;2.80;;;12.50;99.90;;;;;;5092856;28;20453;-69
2022/06/11 01:00:26;;;;;;;4.73;2.93;;;12.50;99.90;;;;;;5092842;28;20461;-69
2022/06/11 01:02:53;;;;;;;3.70;3.07;;;12.50;99.90;;;;;;5092567;28;20493;-69
2022/06/11 01:05:23;;;;;;;3.40;3.10;;;12.50;99.90;;;;;;5091905;28;20458;-69
2022/06/11 01:08:14;;;;;;;3.17;2.57;;;12.40;99.90;;;;;;5112760;28;20493;-70
2022/06/11 01:11:12;;;;;;;5.47;3.40;;;12.40;99.90;;;;;;5113053;28;20514;-70
2022/06/11 01:13:51;;;;;;;3.30;2.90;;;12.40;99.90;;;;;;5112895;28;20980;-69
2022/06/11 01:16:26;;;;;;;5.23;3.23;;;12.40;99.90;;;;;;5113301;28;20488;-69
2022/06/11 01:19:01;;;;;;;3.00;2.80;;;12.40;99.90;;;;;;5112240;28;20467;-70
2022/06/11 01:21:36;;;;;;;6.00;3.27;;;12.30;99.90;;;;;;5113095;28;20951;-69
2022/06/11 01:24:29;;;;;;;3.40;3.10;;;12.30;99.90;;;;;;5112784;28;20487;-71
2022/06/11 01:27:31;;;;;;;4.20;3.10;;;12.30;99.90;;;;;;5112719;28;20453;-69
2022/06/11 01:30:01;;;;;;;3.50;3.20;;;12.20;99.90;;;;;;5111950;28;20869;-70
2022/06/11 01:32:41;;;;;;;4.03;3.57;;;12.20;99.90;;;;;;5112800;28;20468;-70
2022/06/11 01:35:18;;;;;;;4.07;3.27;;;12.20;99.90;;;;;;5113059;28;20830;-69
2022/06/11 01:37:50;;;;;;;3.50;3.00;;;12.20;99.90;;;;;;5112258;28;20475;-70
2022/06/11 01:40:27;;;;;;;3.37;2.80;;;12.20;99.90;;;;;;5112163;28;20464;-69
2022/06/11 01:42:58;;;;;;;4.47;3.23;;;12.10;99.90;;;;;;5112005;28;20484;-69
2022/06/11 01:45:29;;;;;;;3.85;3.55;;;12.10;99.90;;;;;;5112424;28;20456;-69
2022/06/11 01:47:58;;;;;;;3.05;2.75;;;12.10;99.90;;;;;;5111810;28;20206;-69
2022/06/11 01:50:27;;;;;;;3.40;3.10;;;12.10;99.90;;;;;;5112152;28;20222;-69
2022/06/11 01:53:24;;;;;;;3.40;3.10;;;12.10;99.90;;;;;;5112282;28;20480;-69
2022/06/11 01:56:10;;;;;;;4.90;3.10;;;12.00;99.90;;;;;;5094539;28;20483;-69
2022/06/11 01:58:52;;;;;;;3.90;3.20;;;12.00;99.90;;;;;;5111491;28;20456;-69
2022/06/11 02:01:26;;;;;;;4.85;3.70;;;12.00;99.90;;;;;;5112128;28;20798;-69
2022/06/11 02:04:05;;;;;;;4.55;3.30;;;12.00;99.90;;;;;;5111807;28;20226;-69
2022/06/11 02:06:40;;;;;;;3.03;2.72;;;12.00;99.90;;;;;;5111798;28;20207;-69
2022/06/11 02:09:17;;;;;;;3.37;3.07;;;11.90;99.90;;;;;;5111313;28;20199;-69
2022/06/11 02:11:48;;;;;;;3.50;3.20;;;11.90;99.90;;;;;;5111458;28;20826;-69
2022/06/11 02:14:21;;;;;;;4.65;3.30;;;11.90;99.90;;;;;;5111947;28;20481;-69
2022/06/11 02:16:54;;;;;;;4.00;3.20;;;11.90;99.90;;;;;;5111147;28;20280;-69
2022/06/11 02:19:24;;;;;;;3.47;3.15;;;11.90;99.90;;;;;;5111377;28;20465;-69
2022/06/11 02:21:55;;;;;;;3.65;2.90;;;11.80;99.90;;;;;;5111537;28;20218;-69
2022/06/11 02:24:27;;;;;;;3.67;3.37;;;11.80;99.90;;;;;;5111570;28;20222;-69
2022/06/11 02:26:58;;;;;;;3.93;3.53;;;11.80;99.90;;;;;;5111622;28;20457;-70
2022/06/11 02:29:26;;;;;;;3.80;3.50;;;11.80;99.90;;;;;;5110916;28;20453;-69
2022/06/11 02:31:58;;;;;;;3.87;3.47;;;11.80;99.90;;;;;;5111392;28;20222;-69
2022/06/11 02:34:27;;;;;;;3.90;3.40;;;11.70;99.90;;;;;;5111232;28;20485;-69
2022/06/11 02:37:00;;;;;;;3.50;3.20;;;11.70;99.90;;;;;;5111310;28;20203;-70
2022/06/11 02:39:30;;;;;;;3.40;3.10;;;11.70;99.90;;;;;;5110506;28;20723;-69
2022/06/11 02:41:57;;;;;;;3.50;3.20;;;11.70;99.90;;;;;;5111336;28;20473;-69
2022/06/11 02:44:24;;;;;;;4.40;3.90;;;11.70;99.90;;;;;;5111196;28;20253;-70
2022/06/11 02:46:51;;;;;;;4.95;3.20;;;11.60;99.90;;;;;;5110993;28;20195;-69
2022/06/11 02:49:22;;;;;;;4.00;3.38;;;11.60;99.90;;;;;;5110925;28;20207;-70
2022/06/11 02:51:51;;;;;;;3.63;3.33;;;11.60;99.90;;;;;;5110884;28;20218;-70
2022/06/11 02:54:19;;;;;;;6.05;3.90;;;11.60;99.90;;;;;;5111165;28;20484;-70
2022/06/11 02:56:47;;;;;;;3.95;3.63;;;11.60;99.90;;;;;;5110849;28;20689;-70
2022/06/11 02:59:14;;;;;;;4.07;3.20;;;11.60;99.90;;;;;;5110759;28;20206;-69
2022/06/11 03:01:42;;;;;;;3.30;3.08;;;11.50;99.90;;;;;;5111312;28;20818;-69
2022/06/11 03:04:08;;;;;;;3.33;3.03;;;11.50;99.90;;;;;;5110809;28;20242;-70
2022/06/11 03:06:38;;;;;;;3.90;3.47;;;11.50;99.90;;;;;;5111256;28;20213;-70
2022/06/11 03:09:05;;;;;;;4.80;3.78;;;11.50;99.90;;;;;;5110307;28;20203;-70
2022/06/11 03:11:32;;;;;;;3.45;3.15;;;11.50;99.90;;;;;;5111046;28;20218;-70
2022/06/11 03:13:59;;;;;;;3.35;3.05;;;11.50;99.90;;;;;;5110585;28;20231;-70
2022/06/11 03:16:26;;;;;;;3.55;3.25;;;11.50;99.90;;;;;;5111080;28;20207;-70
2022/06/11 03:18:53;;;;;;;4.60;3.30;;;11.50;99.90;;;;;;5110231;28;20205;-70
2022/06/11 03:21:20;;;;;;;3.50;3.13;;;11.40;99.90;;;;;;5110986;28;20596;-70
2022/06/11 03:23:48;;;;;;;3.30;3.00;;;11.40;99.90;;;;;;5110625;28;20246;-70
2022/06/11 03:26:16;;;;;;;3.88;3.00;;;11.40;99.90;;;;;;5110919;28;20194;-69
2022/06/11 03:28:42;;;;;;;4.93;3.13;;;11.40;99.90;;;;;;5110829;28;20701;-70
2022/06/11 03:31:09;;;;;;;3.80;3.40;;;11.40;99.90;;;;;;5114699;28;20229;-70
2022/06/11 03:33:39;;;;;;;3.53;3.17;;;11.40;99.90;;;;;;5114944;28;20218;-70
2022/06/11 03:36:08;;;;;;;3.33;2.90;;;11.40;99.90;;;;;;5115063;28;20230;-69
2022/06/11 03:38:35;;;;;;;3.30;3.00;;;11.40;99.90;;;;;;5113953;28;20468;-69
2022/06/11 03:41:04;;;;;;;5.53;3.40;;;11.40;99.90;;;;;;5114676;28;20203;-70
2022/06/11 03:43:31;;;;;;;3.95;3.60;;;11.40;99.90;;;;;;5114543;28;20277;-70
2022/06/11 03:45:58;;;;;;;3.30;3.10;;;11.40;99.90;;;;;;5113995;28;20234;-70
2022/06/11 03:48:25;;;;;;;4.45;3.50;;;11.40;99.90;;;;;;5113856;28;20456;-70
2022/06/11 03:50:52;;;;;;;4.25;3.47;;;11.40;99.90;;;;;;5114553;28;20254;-70
2022/06/11 03:53:19;;;;;;;3.53;3.20;;;11.40;99.90;;;;;;5114518;28;20230;-69
2022/06/11 03:55:46;;;;;;;3.42;3.13;;;11.40;99.90;;;;;;5114355;28;20210;-69
2022/06/11 03:58:18;;;;;;;3.85;3.53;;;11.40;99.90;;;;;;5113809;28;20712;-70
2022/06/11 04:03:30;;;;;;;3.40;3.10;;;11.50;99.90;;;;;;5114540;28;20824;-69
2022/06/11 04:05:57;;;;;;;3.45;2.85;;;11.50;99.90;;;;;;5114096;28;20199;-70
2022/06/11 04:08:25;;;;;;;3.83;3.42;;;11.50;99.90;;;;;;5113806;28;20611;-69
2022/06/11 04:10:54;;;;;;;4.07;3.20;;;11.50;99.90;;;;;;5114234;28;20226;-69
2022/06/11 04:13:24;;;;;;;3.30;2.90;;;11.50;99.90;;;;;;5113730;28;20546;-69
2022/06/11 04:15:51;;;;;;;3.47;3.17;;;11.60;99.90;;;;;;5114152;28;20203;-69
2022/06/11 04:18:32;;;;;;;4.60;3.65;;;11.60;99.90;;;;;;5113297;28;20210;-70
2022/06/11 04:20:59;;;;;;;3.60;3.30;;;11.60;99.90;;;;;;5113972;28;20202;-69
2022/06/11 04:23:29;;;;;;;3.65;3.20;;;11.70;99.90;;;;;;5113809;28;20223;-70
2022/06/11 04:25:57;;;;;;;4.05;3.47;;;11.70;99.90;;;;;;5113941;28;20199;-69
2022/06/11 04:28:26;;;;;;;3.47;3.17;;;11.80;99.90;;;;;;5113458;28;20617;-69
2022/06/11 04:30:53;;;;;;;4.75;3.92;;;11.80;99.90;;;;;;5113752;28;20250;-69
2022/06/11 04:33:20;;;;;;;3.97;3.22;;;11.80;99.90;;;;;;5113808;28;20222;-69
2022/06/11 04:35:46;;;;;;;3.88;3.47;;;11.90;99.90;;;;;;5113690;28;20199;-69
2022/06/11 04:38:13;;;;;;;4.72;3.50;;;11.90;99.90;;;;;;5112907;28;20634;-70
2022/06/11 04:40:40;;;;;;;4.80;3.70;;;12.00;99.90;;;;;;5113325;28;20206;-69
2022/06/11 04:43:07;;;;;;;5.35;4.00;;;12.10;99.90;;;;;;5113524;28;20230;-69
2022/06/11 04:45:36;;;;;;;4.47;4.07;;;12.10;99.90;;;;;;5113639;28;20210;-69
2022/06/11 04:48:03;;;;;;;4.80;3.70;;;12.20;99.90;;;;;;5112578;28;20466;-69
2022/06/11 04:50:30;;;;;;;4.82;3.45;;;12.30;99.90;;;;;;5113491;28;20719;-70
2022/06/11 04:52:57;;;;;;;3.60;3.30;;;12.40;99.90;;;;;;5112962;28;20222;-69
2022/06/11 04:55:24;;;;;;;3.40;3.07;;;12.40;99.90;;;;;;5113827;28;20533;-70
2022/06/11 04:57:51;;;;;;;4.10;3.27;;;12.50;99.90;;;;;;5113060;28;20944;-70
2022/06/11 05:00:20;;;;;;;3.83;3.53;;;12.60;99.90;;;;;;5112787;28;20822;-70
2022/06/11 05:02:49;;;;;;;3.43;3.13;;;12.70;99.90;;;;;;5113157;28;20460;-69
2022/06/11 05:05:16;;;;;;;6.30;3.57;;;12.80;99.90;;;;;;5112895;28;20860;-70
2022/06/11 05:07:44;;;;;;;3.80;3.40;;;12.90;99.90;;;;;;5113109;28;20836;-70
2022/06/11 05:10:14;;;;;;;5.70;3.40;;;13.00;99.90;;;;;;5112295;28;20464;-70
2022/06/11 05:12:40;;;;;;;3.40;3.10;;;13.20;99.90;;;;;;5113047;28;20860;-70
2022/06/11 05:15:08;;;;;;;3.83;3.40;;;13.30;99.90;;;;;;5112494;28;20460;-69
2022/06/11 05:17:35;;;;;;;4.60;3.37;;;13.50;99.90;;;;;;5113032;28;20865;-70
2022/06/11 05:20:04;;;;;;;3.93;2.97;;;13.60;99.90;;;;;;5112158;28;20464;-70
2022/06/11 05:22:31;;;;;;;3.57;3.03;;;13.70;99.90;;;;;;5112628;28;20452;-70
2022/06/11 05:24:58;;;;;;;5.10;3.60;;;13.90;99.90;;;;;;5112666;28;20480;-70
2022/06/11 05:27:26;;;;;;;5.57;3.30;;;14.00;99.90;;;;;;5112710;28;20464;-70
2022/06/11 05:29:57;;;;;;;4.63;3.33;;;14.10;99.90;;;;;;5112108;28;20461;-70
2022/06/11 05:32:27;;;;;;;3.10;2.90;;;14.20;99.90;;;;;;5112560;28;20491;-69
2022/06/11 05:34:54;;;;;;;3.67;2.77;;;14.40;99.90;;;;;;5112443;28;20473;-70
2022/06/11 05:39:55;;;;;;;2.93;2.63;;;14.60;99.90;;;;;;5125962;22;20491;-66
2022/06/11 05:42:25;;;;;;;3.37;2.93;;;14.80;99.90;;;;;;5072190;28;20811;-66
2022/06/11 05:44:52;;;;;;;2.90;2.70;;;14.90;99.90;;;;;;5052426;28;20848;-67
2022/06/11 05:47:22;;;;;;;2.70;2.50;;;15.00;99.90;;;;;;5052155;28;20466;-66
2022/06/11 05:49:52;;;;;;;4.70;2.77;;;15.10;99.90;;;;;;5051046;28;20487;-67
2022/06/11 05:52:23;;;;;;;4.47;2.93;;;15.20;99.90;;;;;;5051108;28;20526;-66
2022/06/11 05:54:51;;;;;;;3.00;2.70;;;15.30;99.90;;;;;;5051580;28;20588;-65
2022/06/11 05:57:21;;;;;;;3.00;2.70;;;15.40;99.90;;;;;;5052049;28;20463;-67
2022/06/11 05:59:51;;;;;;;2.90;2.57;;;15.50;99.90;;;;;;5051128;28;20473;-66
2022/06/11 06:02:21;;;;;;;2.40;2.20;;;15.70;99.90;;;;;;5051696;28;20456;-66
2022/06/11 06:04:48;;;;;;;2.30;2.10;;;15.80;99.90;;;;;;5051646;28;20483;-67
2022/06/11 06:07:15;;;;;;;2.83;2.60;;;15.90;99.90;;;;;;5051593;28;20467;-66
2022/06/11 06:09:41;;;;;;;3.00;2.70;;;16.00;99.90;;;;;;5051002;28;20734;-67
2022/06/11 06:12:09;;;;;;;2.83;2.63;;;16.10;99.90;;;;;;5051487;28;21017;-67
2022/06/11 06:14:37;;;;;;;3.17;2.57;;;16.30;99.90;;;;;;5051501;28;20483;-67
2022/06/11 06:17:05;;;;;;;3.07;2.57;;;16.30;99.90;;;;;;5051315;28;20887;-66
2022/06/11 06:19:31;;;;;;;4.10;2.83;;;16.30;99.90;;;;;;5050640;28;20463;-67
2022/06/11 06:21:58;;;;;;;2.87;2.67;;;16.40;99.90;;;;;;5051108;28;20459;-66
2022/06/11 06:24:25;;;;;;;2.47;2.30;;;16.40;99.90;;;;;;5050923;28;20488;-71
2022/06/11 06:26:51;;;;;;;5.10;2.60;;;16.50;99.90;;;;;;5051050;28;20459;-68
2022/06/11 06:29:18;;;;;;;3.20;2.90;;;16.60;99.90;;;;;;5050399;28;20555;-67
2022/06/11 06:31:47;;;;;;;2.70;2.23;;;16.60;99.90;;;;;;5050643;28;20479;-67
2022/06/11 06:34:14;;;;;;;3.10;2.63;;;16.60;99.90;;;;;;5050735;28;20841;-68
2022/06/11 06:36:41;;;;;;;2.50;2.30;;;16.70;99.90;;;;;;5048740;28;21189;-70
2022/06/11 06:39:08;;;;;;;2.43;2.23;;;16.90;99.90;;;;;;5050208;28;20478;-70
2022/06/11 06:41:34;;;;;;;2.80;2.30;;;17.00;99.90;;;;;;5050873;28;20458;-69
2022/06/11 06:44:01;;;;;;;2.33;2.00;;;17.20;99.90;;;;;;5050646;28;20872;-69
2022/06/11 06:46:28;;;;;;;2.60;2.40;;;17.30;99.90;;;;;;5050740;28;20629;-70
2022/06/11 06:48:56;;;;;;;2.37;2.00;;;17.50;99.90;;;;;;5050102;28;20456;-71
2022/06/11 06:51:22;;;;;;;2.50;2.30;;;17.60;99.90;;;;;;5050511;28;20491;-71
2022/06/11 06:53:49;;;;;;;3.20;2.40;;;17.60;99.90;;;;;;5050161;28;20848;-67
2022/06/11 06:56:16;;;;;;;2.93;1.83;;;17.60;99.90;;;;;;5050931;28;20459;-69
2022/06/11 06:58:43;;;;;;;2.47;2.27;;;17.70;99.90;;;;;;5049762;28;20463;-71
2022/06/11 07:01:10;;;;;;;2.60;2.13;;;17.80;99.90;;;;;;5050878;28;20460;-70
2022/06/11 07:03:37;;;;;;;4.13;2.37;;;17.90;99.90;;;;;;5050359;28;20891;-70
2022/06/11 07:06:05;;;;;;;2.77;2.50;;;18.00;99.90;;;;;;5050386;28;20471;-68
2022/06/11 07:08:32;;;;;;;2.53;2.20;;;18.10;99.90;;;;;;5069601;28;20861;-69
2022/06/11 07:10:59;;;;;;;4.20;2.70;;;18.20;99.90;;;;;;5070405;28;20473;-69
2022/06/11 07:13:26;;;;;;;2.70;1.90;;;18.30;99.90;;;;;;5070450;28;20490;-70
2022/06/11 07:15:56;;;;;;;3.00;1.97;;;18.40;99.90;;;;;;5070185;28;20462;-68
2022/06/11 07:18:27;;;;;;;3.20;2.30;;;18.60;99.90;;;;;;5069934;28;20466;-70
2022/06/11 07:20:55;;;;;;;3.33;1.80;;;18.70;99.90;;;;;;5070157;28;20458;-67
2022/06/11 07:23:26;;;;;;;4.83;2.70;;;18.90;99.90;;;;;;5070280;28;20872;-68
2022/06/11 07:25:56;;;;;;;2.53;2.20;;;19.00;99.90;;;;;;5070037;28;20721;-67
2022/06/11 07:28:29;;;;;;;3.23;2.30;;;19.10;99.90;;;;;;5070433;28;20455;-68
2022/06/11 07:30:56;;;;;;;2.63;2.20;;;19.20;99.90;;;;;;5066871;28;20466;-68
2022/06/11 07:33:25;;;;;;;2.10;1.90;;;19.20;99.90;;;;;;5068720;28;20490;-68
2022/06/11 07:35:53;;;;;;;2.73;2.10;;;19.20;99.90;;;;;;5065809;28;20474;-68
2022/06/11 07:38:23;;;;;;;4.00;2.30;;;19.30;99.90;;;;;;5048458;28;20475;-69
2022/06/11 07:40:50;;;;;;;2.50;2.30;;;19.40;99.90;;;;;;5049450;28;20463;-68
2022/06/11 07:43:17;;;;;;;2.40;2.20;;;19.50;99.90;;;;;;5049462;28;20479;-67
2022/06/11 07:45:45;;;;;;;2.20;2.00;;;19.60;99.90;;;;;;5049508;28;20463;-68
2022/06/11 07:48:13;;;;;;;3.20;2.20;;;19.70;99.90;;;;;;5048861;28;20463;-67
2022/06/11 07:50:43;;;;;;;5.53;2.20;;;19.90;99.90;;;;;;5049378;28;20828;-68
2022/06/11 07:53:10;;;;;;;4.43;2.47;;;20.00;99.90;;;;;;5048999;28;20491;-68
2022/06/11 07:55:40;;;;;;;5.30;2.40;;;20.10;99.90;;;;;;5049206;28;20466;-67
2022/06/11 07:58:08;;;;;;;4.07;2.30;;;20.20;99.90;;;;;;5048302;28;20464;-68
2022/06/11 08:00:38;;;;;;;4.97;2.40;;;20.30;99.90;;;;;;5049239;28;20459;-68
2022/06/11 08:03:06;;;;;;;9.53;3.07;;;20.40;99.90;;;;;;5048804;28;20482;-67
2022/06/11 08:05:33;;;;;;;2.60;2.40;;;20.40;99.90;;;;;;5049398;28;20459;-67
2022/06/11 08:08:00;;;;;;;4.57;2.57;;;20.40;99.90;;;;;;5047963;28;20459;-68
2022/06/11 08:10:29;;;;;;;6.63;2.30;;;20.40;99.90;;;;;;5049526;28;20471;-68
2022/06/11 08:12:57;;;;;;;4.17;2.10;;;20.50;99.90;;;;;;5048902;28;20483;-67
2022/06/11 08:15:25;;;;;;;2.80;2.30;;;20.60;99.90;;;;;;5050616;28;20459;-66
2022/06/11 08:17:52;;;;;;;2.73;2.30;;;20.60;99.90;;;;;;5052619;28;20470;-68
2022/06/11 08:20:22;;;;;;;4.23;2.20;;;20.70;99.90;;;;;;5050635;28;20459;-68
2022/06/11 08:22:49;;;;;;;2.93;2.30;;;20.80;99.90;;;;;;5052281;28;20455;-68
2022/06/11 08:25:16;;;;;;;6.10;3.53;;;20.90;99.90;;;;;;5052415;28;20459;-68
2022/06/11 08:27:43;;;;;;;3.57;2.60;;;21.00;99.90;;;;;;5052558;28;20815;-69
2022/06/11 08:30:14;;;;;;;6.00;3.90;;;21.00;99.90;;;;;;5056954;28;20454;-68
2022/06/11 08:32:41;;;;;;;4.50;2.50;;;21.10;99.90;;;;;;5045095;28;20476;-69
2022/06/11 08:35:10;;;;;;;3.43;2.33;;;21.30;99.90;;;;;;5050750;28;20478;-69
2022/06/11 08:37:38;;;;;;;3.30;2.83;;;21.30;99.90;;;;;;5052649;28;20494;-68
2022/06/11 08:40:07;;;;;;;2.77;1.97;;;21.50;99.90;;;;;;5068196;28;20980;-69
2022/06/11 08:42:38;;;;;;;2.13;1.90;;;21.60;99.90;;;;;;5072172;28;20477;-70
2022/06/11 08:45:13;;;;;;;8.07;2.50;;;21.70;99.90;;;;;;5071888;28;20462;-68
2022/06/11 08:47:46;;;;;;;5.57;2.37;;;21.70;99.90;;;;;;5071981;28;20485;-67
2022/06/11 08:50:16;;;;;;;2.63;2.40;;;21.80;99.90;;;;;;5065594;28;20508;-67
2022/06/11 08:52:44;;;;;;;4.23;3.07;;;21.90;99.90;;;;;;5064409;28;20475;-71
2022/06/11 08:55:11;;;;;;;6.67;2.13;;;22.00;99.90;;;;;;5050937;28;20470;-69
2022/06/11 08:57:51;;;;;;;5.20;2.80;;;22.20;99.90;;;;;;5052147;28;20463;-69
2022/06/11 09:00:21;;;;;;;4.60;2.17;;;22.30;99.90;;;;;;5058327;28;20844;-69
2022/06/11 09:03:06;;;;;;;3.30;2.40;;;22.50;99.90;;;;;;5069991;28;20942;-70
2022/06/11 09:05:45;;;;;;;2.40;2.20;;;22.60;99.90;;;;;;5069603;28;20938;-68
2022/06/11 09:08:37;;;;;;;6.13;2.20;;;22.60;99.90;;;;;;5071105;28;20462;-69
2022/06/11 09:11:13;;;;;;;3.13;2.40;;;22.60;99.90;;;;;;5071556;28;20533;-68
2022/06/11 09:14:09;;;;;;;3.30;2.70;;;22.60;99.90;;;;;;5071467;28;20858;-68
2022/06/11 09:16:51;;;;;;;3.47;2.37;;;22.60;99.90;;;;;;5067444;28;20565;-68
2022/06/11 09:19:41;;;;;;;5.97;2.30;;;22.60;99.90;;;;;;5070809;28;20508;-69
2022/06/11 09:22:23;;;;;;;6.60;2.57;;;22.60;99.90;;;;;;5071592;28;20466;-67
2022/06/11 09:25:10;;;;;;;2.53;2.23;;;22.90;99.90;;;;;;5071144;28;20502;-69
2022/06/11 09:27:40;;;;;;;4.70;2.60;;;23.10;99.90;;;;;;5070105;28;20872;-68
2022/06/11 09:30:10;;;;;;;6.27;2.50;;;23.30;99.90;;;;;;5071057;28;20962;-68
2022/06/11 09:32:44;;;;;;;3.43;1.80;;;23.50;99.60;;;;;;5070984;28;20482;-69
2022/06/11 09:35:17;;;;;;;5.17;2.23;;;23.50;99.90;;;;;;5071321;28;20462;-67
2022/06/11 09:37:55;;;;;;;3.87;2.10;;;23.20;99.20;;;;;;5071162;28;20852;-69
2022/06/11 09:40:32;;;;;;;2.50;2.30;;;23.10;98.70;;;;;;5070510;28;20455;-68
2022/06/11 09:43:10;;;;;;;3.73;2.70;;;23.10;99.00;;;;;;5070570;28;20481;-68
2022/06/11 09:45:43;;;;;;;4.00;2.47;;;23.10;99.90;;;;;;5070791;28;20454;-68
2022/06/11 09:48:21;;;;;;;3.80;2.30;;;23.10;99.70;;;;;;5069941;28;20988;-73
2022/06/11 09:50:53;;;;;;;3.27;2.30;;;23.30;99.90;;;;;;5070773;28;20972;-69
2022/06/11 09:53:36;;;;;;;2.67;2.23;;;23.80;99.90;;;;;;5070822;28;20512;-68
2022/06/11 09:56:46;;;;;;;3.17;2.30;;;24.40;98.70;;;;;;5099326;22;20496;-93
2022/06/11 09:59:29;;;;;;;3.47;2.43;;;25.00;98.30;;;;;;5140702;27;20476;-94
2022/06/11 10:02:03;;;;;;;3.33;2.20;;;25.70;99.20;;;;;;5157432;27;20490;-94
2022/06/11 10:10:56;;;;;;;2.60;2.23;;;25.60;96.90;;;;;;5069538;28;20466;-92
2022/06/11 10:13:35;;;;;;;3.20;2.73;;;25.40;97.70;;;;;;5074223;22;20493;-66
2022/06/11 10:16:10;;;;;;;4.40;2.40;;;25.40;98.90;;;;;;5050716;28;20476;-66
2022/06/11 10:18:39;;;;;;;2.93;2.23;;;25.60;97.40;;;;;;5049480;28;20965;-67
2022/06/11 10:21:10;;;;;;;3.07;2.50;;;25.70;99.10;;;;;;5050294;28;21265;-67
2022/06/11 10:23:43;;;;;;;4.60;2.20;;;25.80;98.60;;;;;;5049817;28;20519;-66
2022/06/11 10:26:17;;;;;;;2.87;2.50;;;25.90;97.80;;;;;;5050455;28;21163;-66
2022/06/11 10:28:53;;;;;;;2.50;2.17;;;26.00;99.50;;;;;;5049206;28;20467;-66
2022/06/11 10:31:21;;;;;;;3.70;2.03;;;26.00;97.60;;;;;;5050171;28;20830;-66
2022/06/11 10:33:54;;;;;;;4.23;2.47;;;25.80;98.70;;;;;;5050149;28;20463;-67
2022/06/11 10:36:25;;;;;;;2.47;2.10;;;25.60;98.80;;;;;;5049383;28;20479;-66
2022/06/11 10:38:56;;;;;;;2.50;2.30;;;25.40;98.40;;;;;;5048846;28;20949;-67
2022/06/11 10:41:29;;;;;;;3.57;2.40;;;25.20;98.60;;;;;;5049714;28;20460;-68
2022/06/11 10:44:06;;;;;;;3.80;2.50;;;25.00;97.70;;;;;;5049780;28;20483;-65
2022/06/11 10:46:36;;;;;;;3.60;2.60;;;24.90;96.80;;;;;;5049705;28;20483;-66
2022/06/11 10:49:04;;;;;;;4.13;2.27;;;24.80;96.70;;;;;;5052410;28;20459;-66
2022/06/11 10:51:34;;;;;;;2.40;2.20;;;25.00;98.40;;;;;;5049662;28;20472;-66
2022/06/11 10:54:11;;;;;;;3.97;2.60;;;25.20;98.70;;;;;;5049659;28;20463;-66
2022/06/11 10:56:46;;;;;;;4.47;2.30;;;25.40;98.50;;;;;;5050957;28;20993;-67
2022/06/11 10:59:21;;;;;;;2.47;2.10;;;25.40;98.70;;;;;;5048248;28;20828;-68
2022/06/11 11:01:54;;;;;;;2.67;2.47;;;25.60;98.40;;;;;;5049416;28;20459;-67
2022/06/11 11:04:31;;;;;;;2.57;2.37;;;25.80;97.90;;;;;;5048449;28;20482;-69
2022/06/11 11:07:10;;;;;;;7.00;2.83;;;25.70;96.80;;;;;;5049375;28;20506;-67
2022/06/11 11:09:37;;;;;;;2.40;2.13;;;25.80;97.30;;;;;;5048307;28;20458;-69
2022/06/11 11:12:08;;;;;;;3.40;2.13;;;26.00;97.80;;;;;;5048672;28;20845;-69
2022/06/11 11:14:39;;;;;;;2.63;2.33;;;26.30;99.60;;;;;;5048151;28;20835;-68
2022/06/11 11:17:14;;;;;;;2.90;2.00;;;26.80;96.90;;;;;;5048742;28;20479;-67
2022/06/11 11:19:43;;;;;;;3.93;2.77;;;27.10;96.00;;;;;;5046515;28;20463;-69
2022/06/11 11:22:17;;;;;;;4.20;2.40;;;27.30;94.20;;;;;;5049115;28;20474;-65
2022/06/11 11:24:47;;;;;;;3.97;2.80;;;27.30;95.20;;;;;;5049481;28;20451;-66
2022/06/11 11:27:19;;;;;;;2.97;2.40;;;27.50;95.70;;;;;;5049878;28;21065;-66
2022/06/11 11:29:51;;;;;;;4.40;4.10;;;27.70;95.40;;;;;;5049099;28;20458;-67
2022/06/11 11:32:30;;;;;;;4.10;3.07;;;28.00;96.10;;;;;;5050653;28;20460;-67
2022/06/11 11:34:57;;;;;;;3.27;2.67;;;28.10;95.00;;;;;;5050666;28;20470;-69
2022/06/11 11:37:27;;;;;;;3.87;2.60;;;28.20;96.20;;;;;;5041068;28;20487;-67
2022/06/11 11:39:56;;;;;;;3.00;2.50;;;27.90;92.70;;;;;;5048349;28;20495;-67
2022/06/11 11:42:26;;;;;;;2.37;1.87;;;27.50;93.90;;;;;;5050174;28;20455;-67
2022/06/11 11:44:57;;;;;;;5.23;2.67;;;27.50;95.40;;;;;;5049151;28;20448;-65
2022/06/11 11:47:28;;;;;;;3.00;2.57;;;27.50;94.90;;;;;;5049928;28;20473;-67
2022/06/11 11:49:58;;;;;;;3.63;2.40;;;27.40;95.80;;;;;;5049716;28;20456;-67
2022/06/11 11:52:27;;;;;;;4.23;2.40;;;27.20;94.60;;;;;;5051324;28;20864;-67
2022/06/11 11:55:00;;;;;;;3.03;2.27;;;27.20;96.50;;;;;;5053922;28;20488;-66
2022/06/11 11:57:31;;;;;;;4.07;2.50;;;27.20;96.20;;;;;;5053748;28;20483;-67
2022/06/11 12:00:02;;;;;;;3.50;2.43;;;27.20;94.80;;;;;;5052589;28;20452;-67
2022/06/11 12:02:34;;;;;;;5.10;2.50;;;27.10;98.10;;;;;;5053121;28;20451;-67
2022/06/11 12:05:41;;;;;;;2.50;2.13;;;27.00;98.50;;;;;;5093103;22;20489;-95
2022/06/11 12:08:30;;;;;;;4.43;2.40;;;27.10;98.10;;;;;;5123429;28;20449;-96
2022/06/11 12:14:37;;;;;;;2.63;2.07;;;28.10;95.60;;;;;;5107970;22;20482;-67
2022/06/11 12:17:17;;;;;;;2.23;2.00;;;28.50;94.00;;;;;;5113424;28;20482;-67
2022/06/11 12:19:47;;;;;;;2.30;2.03;;;28.50;90.30;;;;;;5113360;28;20457;-67
2022/06/11 12:22:25;;;;;;;3.87;2.50;;;28.50;95.20;;;;;;5113532;28;20832;-67
2022/06/11 12:24:52;;;;;;;2.20;2.00;;;28.60;94.70;;;;;;5113599;28;20482;-67
2022/06/11 12:27:26;;;;;;;3.67;2.53;;;28.80;95.30;;;;;;5113368;28;20479;-66
2022/06/11 12:30:01;;;;;;;2.90;1.93;;;29.10;93.00;;;;;;5097217;28;20481;-67
2022/06/11 12:32:29;;;;;;;2.47;2.00;;;29.30;95.10;;;;;;5092847;28;20465;-67
2022/06/11 12:34:59;;;;;;;2.73;2.13;;;29.30;93.10;;;;;;5092712;28;20460;-67
2022/06/11 12:37:37;;;;;;;2.63;1.90;;;29.20;94.60;;;;;;5092509;28;20529;-67
2022/06/11 12:40:16;;;;;;;2.37;2.10;;;28.90;91.90;;;;;;5092627;28;20492;-67
2022/06/11 12:42:52;;;;;;;3.97;2.27;;;28.50;90.80;;;;;;5093176;28;20468;-68
2022/06/11 12:45:27;;;;;;;2.97;2.23;;;28.10;92.20;;;;;;5092998;28;20462;-66
2022/06/11 12:48:15;;;;;;;2.77;2.47;;;28.10;91.90;;;;;;5082873;28;20479;-68
2022/06/11 12:50:51;;;;;;;2.80;2.17;;;28.20;92.00;;;;;;5072935;28;20464;-66
2022/06/11 12:53:25;;;;;;;3.73;2.20;;;28.00;92.00;;;;;;5072604;28;20478;-67
2022/06/11 12:56:07;;;;;;;3.73;2.43;;;28.00;93.10;;;;;;5072652;28;20914;-68
2022/06/11 12:59:12;;;;;;;4.10;2.33;;;27.80;92.80;;;;;;5071545;28;21147;-70
2022/06/11 13:01:50;;;;;;;3.63;2.80;;;27.60;92.30;;;;;;5067133;28;20874;-71
2022/06/11 13:04:43;;;;;;;3.83;2.47;;;27.10;91.90;;;;;;5074730;28;20486;-69
2022/06/11 13:07:14;;;;;;;2.90;2.30;;;26.90;93.30;;;;;;5072019;28;20499;-69
2022/06/11 13:09:54;;;;;;;3.40;2.40;;;26.50;93.10;;;;;;5071800;28;20462;-71
2022/06/11 13:12:34;;;;;;;3.10;2.03;;;26.40;92.80;;;;;;5072291;28;20481;-70
2022/06/11 13:15:27;;;;;;;3.20;2.40;;;26.30;96.10;;;;;;5071824;28;20458;-71
2022/06/11 13:18:17;;;;;;;2.90;2.37;;;26.30;97.50;;;;;;5091327;28;21070;-69
2022/06/11 13:20:54;;;;;;;3.80;2.43;;;26.60;94.40;;;;;;5092346;28;20457;-68
2022/06/11 13:23:28;;;;;;;2.27;2.07;;;27.00;93.50;;;;;;5091977;28;20509;-68
2022/06/11 13:26:05;;;;;;;3.43;2.07;;;27.40;95.10;;;;;;5091958;28;20486;-68